N955PM KTOL-KPWM
Flight info
| Callsign | N955PM |
|---|---|
| Flight time | 1h 30m |
| Altitude | 41000 |
| Route | MUDHN FNT Q822 KITOK AGDOX KELTI SYR CON |
| Aircraft | CL60/M-SBDE1E2E3FGHIJ1J4J5J7M3RWXYZ/LB1V1D1 |
Departure
| Time | 2026-04-23 23:52 |
|---|---|
| Airport | Eugene F. Kranz Toledo Express Airport (KTOL) |
Arrival
| Time | 2026-04-24 01:23 |
|---|---|
| Airport | Portland International Jetport (KPWM) |
| Time | Latitude | Longitude | Altitude | Speed | Heading |
|---|---|---|---|---|---|
| 2026-04-23 23:34 | 41.58628 | -83.82272 | 683 ft | 0 kts | 339° |
| 2026-04-23 23:46 | 41.58652 | -83.82272 | 683 ft | 5 kts | 36° |
| 2026-04-23 23:46 | 41.58646 | -83.82189 | 683 ft | 15 kts | 154° |
| 2026-04-23 23:46 | 41.58634 | -83.82071 | 683 ft | 16 kts | 66° |
| 2026-04-23 23:47 | 41.58662 | -83.81984 | 683 ft | 5 kts | 67° |
| 2026-04-23 23:47 | 41.58676 | -83.81937 | 683 ft | 11 kts | 66° |
| 2026-04-23 23:47 | 41.58728 | -83.81773 | 683 ft | 25 kts | 67° |
| 2026-04-23 23:47 | 41.58809 | -83.81516 | 683 ft | 31 kts | 67° |
| 2026-04-23 23:48 | 41.58895 | -83.81241 | 683 ft | 32 kts | 65° |
| 2026-04-23 23:48 | 41.58984 | -83.80962 | 682 ft | 33 kts | 66° |
| 2026-04-23 23:48 | 41.59073 | -83.80675 | 680 ft | 34 kts | 67° |
| 2026-04-23 23:48 | 41.59168 | -83.80375 | 677 ft | 35 kts | 68° |
| 2026-04-23 23:49 | 41.59360 | -83.79773 | 673 ft | 37 kts | 67° |
| 2026-04-23 23:49 | 41.59383 | -83.79580 | 671 ft | 12 kts | 151° |
| 2026-04-23 23:49 | 41.59341 | -83.79557 | 671 ft | 0 kts | 156° |
| 2026-04-23 23:50 | 41.59339 | -83.79556 | 670 ft | 2 kts | 156° |
| 2026-04-23 23:51 | 41.59280 | -83.79520 | 670 ft | 8 kts | 161° |
| 2026-04-23 23:51 | 41.59255 | -83.79539 | 670 ft | 0 kts | 249° |
| 2026-04-23 23:51 | 41.59195 | -83.79730 | 673 ft | 65 kts | 247° |
| 2026-04-23 23:51 | 41.58909 | -83.80634 | 680 ft | 141 kts | 247° |
| 2026-04-23 23:52 | 41.58477 | -83.81998 | 1000 ft | 172 kts | 244° |
| 2026-04-23 23:52 | 41.57980 | -83.83418 | 1956 ft | 169 kts | 242° |
| 2026-04-23 23:52 | 41.57476 | -83.84843 | 2762 ft | 180 kts | 243° |
| 2026-04-23 23:52 | 41.56898 | -83.86404 | 3481 ft | 195 kts | 243° |
| 2026-04-23 23:53 | 41.56294 | -83.88007 | 4325 ft | 200 kts | 243° |
| 2026-04-23 23:53 | 41.55656 | -83.89678 | 5191 ft | 205 kts | 240° |
| 2026-04-23 23:53 | 41.54637 | -83.91078 | 5692 ft | 231 kts | 207° |
| 2026-04-23 23:53 | 41.52954 | -83.91374 | 6153 ft | 262 kts | 169° |
| 2026-04-23 23:54 | 41.51300 | -83.90329 | 6969 ft | 277 kts | 142° |
| 2026-04-23 23:54 | 41.50170 | -83.88223 | 7871 ft | 289 kts | 110° |
| 2026-04-23 23:54 | 41.50034 | -83.85560 | 8810 ft | 295 kts | 77° |
| 2026-04-23 23:54 | 41.50666 | -83.82973 | 9767 ft | 299 kts | 70° |
| 2026-04-23 23:55 | 41.51377 | -83.80370 | 10767 ft | 302 kts | 70° |
| 2026-04-23 23:55 | 41.52083 | -83.77764 | 11712 ft | 305 kts | 70° |
| 2026-04-23 23:55 | 41.52789 | -83.75111 | 12682 ft | 307 kts | 70° |
| 2026-04-23 23:55 | 41.53495 | -83.72391 | 13437 ft | 316 kts | 70° |
| 2026-04-23 23:56 | 41.54249 | -83.69479 | 13500 ft | 348 kts | 70° |
| 2026-04-23 23:56 | 41.55059 | -83.66330 | 13845 ft | 367 kts | 70° |
| 2026-04-23 23:56 | 41.55888 | -83.63097 | 14451 ft | 376 kts | 70° |
| 2026-04-23 23:56 | 41.56741 | -83.59760 | 15161 ft | 382 kts | 70° |
| 2026-04-23 23:57 | 41.57606 | -83.56367 | 15859 ft | 387 kts | 70° |
| 2026-04-23 23:57 | 41.58466 | -83.52982 | 16519 ft | 392 kts | 71° |
| 2026-04-23 23:57 | 41.59348 | -83.49506 | 17151 ft | 397 kts | 71° |
| 2026-04-23 23:57 | 41.60242 | -83.45973 | 17760 ft | 402 kts | 71° |
| 2026-04-23 23:58 | 41.61142 | -83.42413 | 18361 ft | 408 kts | 71° |
| 2026-04-23 23:58 | 41.62043 | -83.38841 | 18961 ft | 412 kts | 70° |
| 2026-04-23 23:58 | 41.62964 | -83.35179 | 19621 ft | 416 kts | 70° |
| 2026-04-23 23:58 | 41.63887 | -83.31506 | 20171 ft | 421 kts | 71° |
| 2026-04-23 23:59 | 41.64821 | -83.27780 | 20766 ft | 425 kts | 71° |
| 2026-04-23 23:59 | 41.65761 | -83.24023 | 21329 ft | 428 kts | 71° |
| 2026-04-23 23:59 | 41.66710 | -83.20227 | 21862 ft | 432 kts | 70° |
| 2026-04-23 23:59 | 41.67661 | -83.16412 | 22365 ft | 436 kts | 70° |
| 2026-04-24 00:00 | 41.68616 | -83.12575 | 22882 ft | 439 kts | 70° |
| 2026-04-24 00:00 | 41.69593 | -83.08643 | 23377 ft | 442 kts | 70° |
| 2026-04-24 00:00 | 41.70560 | -83.04745 | 23875 ft | 444 kts | 70° |
| 2026-04-24 00:00 | 41.71534 | -83.00814 | 24319 ft | 448 kts | 70° |
| 2026-04-24 00:01 | 41.72521 | -82.96820 | 24738 ft | 452 kts | 70° |
| 2026-04-24 00:01 | 41.73513 | -82.92800 | 25172 ft | 455 kts | 70° |
| 2026-04-24 00:01 | 41.74515 | -82.88732 | 25564 ft | 459 kts | 70° |
| 2026-04-24 00:01 | 41.75514 | -82.84669 | 25959 ft | 462 kts | 70° |
| 2026-04-24 00:02 | 41.76517 | -82.80585 | 26328 ft | 466 kts | 70° |
| 2026-04-24 00:02 | 41.77542 | -82.76399 | 26687 ft | 469 kts | 70° |
| 2026-04-24 00:02 | 41.78558 | -82.72247 | 27028 ft | 473 kts | 70° |
| 2026-04-24 00:02 | 41.79581 | -82.68053 | 27354 ft | 476 kts | 69° |
| 2026-04-24 00:03 | 41.80614 | -82.63812 | 27681 ft | 479 kts | 69° |
| 2026-04-24 00:03 | 41.81656 | -82.59529 | 28011 ft | 481 kts | 69° |
| 2026-04-24 00:03 | 41.82688 | -82.55276 | 28343 ft | 483 kts | 69° |
| 2026-04-24 00:03 | 41.83734 | -82.50958 | 28651 ft | 486 kts | 69° |
| 2026-04-24 00:04 | 41.84781 | -82.46629 | 28976 ft | 487 kts | 69° |
| 2026-04-24 00:04 | 41.85836 | -82.42255 | 29364 ft | 487 kts | 69° |
| 2026-04-24 00:04 | 41.86877 | -82.37931 | 29791 ft | 486 kts | 69° |
| 2026-04-24 00:04 | 41.87917 | -82.33604 | 30201 ft | 484 kts | 69° |
| 2026-04-24 00:05 | 41.88949 | -82.29301 | 30571 ft | 484 kts | 69° |
| 2026-04-24 00:05 | 41.89991 | -82.24948 | 30950 ft | 483 kts | 69° |
| 2026-04-24 00:05 | 41.91011 | -82.20686 | 31287 ft | 482 kts | 69° |
| 2026-04-24 00:05 | 41.92040 | -82.16373 | 31612 ft | 482 kts | 69° |
| 2026-04-24 00:06 | 41.93067 | -82.12058 | 31924 ft | 481 kts | 69° |
| 2026-04-24 00:06 | 41.94080 | -82.07800 | 32205 ft | 482 kts | 69° |
| 2026-04-24 00:06 | 41.95092 | -82.03531 | 32480 ft | 482 kts | 69° |
| 2026-04-24 00:06 | 41.96111 | -81.99229 | 32763 ft | 481 kts | 69° |
| 2026-04-24 00:07 | 41.97129 | -81.94922 | 33053 ft | 481 kts | 69° |
| 2026-04-24 00:07 | 41.98138 | -81.90645 | 33352 ft | 479 kts | 69° |
| 2026-04-24 00:07 | 41.99144 | -81.86371 | 33617 ft | 479 kts | 69° |
| 2026-04-24 00:07 | 42.00148 | -81.82099 | 33896 ft | 478 kts | 69° |
| 2026-04-24 00:08 | 42.01173 | -81.77731 | 34155 ft | 478 kts | 69° |
| 2026-04-24 00:08 | 42.02162 | -81.73508 | 34456 ft | 477 kts | 69° |
| 2026-04-24 00:08 | 42.03158 | -81.69246 | 34786 ft | 475 kts | 69° |
| 2026-04-24 00:08 | 42.04169 | -81.64911 | 35093 ft | 474 kts | 69° |
| 2026-04-24 00:09 | 42.05161 | -81.60651 | 35373 ft | 473 kts | 69° |
| 2026-04-24 00:09 | 42.06139 | -81.56442 | 35618 ft | 472 kts | 69° |
| 2026-04-24 00:09 | 42.07125 | -81.52190 | 35854 ft | 472 kts | 69° |
| 2026-04-24 00:09 | 42.08094 | -81.48003 | 36106 ft | 471 kts | 69° |
| 2026-04-24 00:10 | 42.09078 | -81.43748 | 36379 ft | 469 kts | 69° |
| 2026-04-24 00:10 | 42.10038 | -81.39581 | 36628 ft | 468 kts | 69° |
| 2026-04-24 00:10 | 42.11005 | -81.35382 | 36830 ft | 468 kts | 69° |
| 2026-04-24 00:10 | 42.11865 | -81.31638 | 37151 ft | 463 kts | 69° |
| 2026-04-24 00:11 | 42.12808 | -81.27518 | 37867 ft | 451 kts | 69° |
| 2026-04-24 00:11 | 42.13603 | -81.24040 | 38459 ft | 441 kts | 69° |
| 2026-04-24 00:11 | 42.14497 | -81.20119 | 38927 ft | 434 kts | 69° |
| 2026-04-24 00:11 | 42.15392 | -81.16198 | 39150 ft | 431 kts | 69° |
| 2026-04-24 00:12 | 42.17164 | -81.08424 | 39301 ft | 432 kts | 69° |
| 2026-04-24 00:12 | 42.18930 | -81.00645 | 39457 ft | 433 kts | 69° |
| 2026-04-24 00:13 | 42.20683 | -80.92896 | 39600 ft | 433 kts | 69° |
| 2026-04-24 00:13 | 42.22418 | -80.85192 | 39785 ft | 433 kts | 69° |
| 2026-04-24 00:14 | 42.24161 | -80.77430 | 39949 ft | 432 kts | 69° |
| 2026-04-24 00:14 | 42.25029 | -80.73553 | 40051 ft | 431 kts | 69° |
| 2026-04-24 00:14 | 42.25900 | -80.69654 | 40156 ft | 430 kts | 68° |
| 2026-04-24 00:15 | 42.27617 | -80.61951 | 40338 ft | 429 kts | 69° |
| 2026-04-24 00:15 | 42.29342 | -80.54186 | 40462 ft | 429 kts | 69° |
| 2026-04-24 00:16 | 42.31038 | -80.46518 | 40667 ft | 427 kts | 69° |
| 2026-04-24 00:16 | 42.32729 | -80.38850 | 40865 ft | 425 kts | 68° |
| 2026-04-24 00:17 | 42.34411 | -80.31197 | 40947 ft | 425 kts | 69° |
| 2026-04-24 00:17 | 42.36092 | -80.23520 | 40952 ft | 427 kts | 69° |
| 2026-04-24 00:18 | 42.37768 | -80.15842 | 40955 ft | 428 kts | 69° |
| 2026-04-24 00:18 | 42.39455 | -80.08085 | 40957 ft | 429 kts | 69° |
| 2026-04-24 00:19 | 42.41131 | -80.00346 | 40954 ft | 431 kts | 69° |
| 2026-04-24 00:19 | 42.42825 | -79.92499 | 40954 ft | 432 kts | 69° |
| 2026-04-24 00:20 | 42.44497 | -79.84724 | 40949 ft | 434 kts | 69° |
| 2026-04-24 00:20 | 42.46179 | -79.76872 | 40946 ft | 435 kts | 69° |
| 2026-04-24 00:21 | 42.47869 | -79.68956 | 40942 ft | 436 kts | 69° |
| 2026-04-24 00:21 | 42.49543 | -79.61079 | 40937 ft | 437 kts | 69° |
| 2026-04-24 00:22 | 42.51230 | -79.53117 | 40940 ft | 439 kts | 69° |
| 2026-04-24 00:22 | 42.52915 | -79.45131 | 40948 ft | 440 kts | 68° |
| 2026-04-24 00:23 | 42.54589 | -79.37170 | 40959 ft | 441 kts | 68° |
| 2026-04-24 00:23 | 42.56270 | -79.29142 | 40961 ft | 441 kts | 69° |
| 2026-04-24 00:24 | 42.57936 | -79.21155 | 40959 ft | 442 kts | 69° |
| 2026-04-24 00:24 | 42.59608 | -79.13105 | 40948 ft | 443 kts | 69° |
| 2026-04-24 00:25 | 42.61274 | -79.05054 | 40950 ft | 444 kts | 69° |
| 2026-04-24 00:25 | 42.62940 | -78.96976 | 40953 ft | 444 kts | 69° |
| 2026-04-24 00:26 | 42.64612 | -78.88831 | 40956 ft | 445 kts | 69° |
| 2026-04-24 00:26 | 42.66266 | -78.80743 | 40955 ft | 446 kts | 69° |
| 2026-04-24 00:27 | 42.67925 | -78.72602 | 40957 ft | 447 kts | 69° |
| 2026-04-24 00:27 | 42.69576 | -78.64461 | 40956 ft | 448 kts | 69° |
| 2026-04-24 00:28 | 42.71222 | -78.56314 | 40950 ft | 449 kts | 69° |
| 2026-04-24 00:28 | 42.72864 | -78.48159 | 40955 ft | 449 kts | 69° |
| 2026-04-24 00:29 | 42.74518 | -78.39906 | 40961 ft | 450 kts | 68° |
| 2026-04-24 00:29 | 42.76159 | -78.31685 | 40963 ft | 451 kts | 69° |
| 2026-04-24 00:30 | 42.77805 | -78.23403 | 40973 ft | 451 kts | 69° |
| 2026-04-24 00:30 | 42.79432 | -78.15185 | 40965 ft | 451 kts | 69° |
| 2026-04-24 00:31 | 42.81065 | -78.06905 | 40965 ft | 452 kts | 69° |
| 2026-04-24 00:31 | 42.82690 | -77.98627 | 40961 ft | 452 kts | 69° |
| 2026-04-24 00:32 | 42.84300 | -77.90389 | 40965 ft | 453 kts | 68° |
| 2026-04-24 00:32 | 42.85915 | -77.82096 | 40967 ft | 454 kts | 68° |
| 2026-04-24 00:33 | 42.87532 | -77.73755 | 40972 ft | 454 kts | 68° |
| 2026-04-24 00:33 | 42.89140 | -77.65427 | 40969 ft | 455 kts | 68° |
| 2026-04-24 00:34 | 42.90739 | -77.57107 | 40973 ft | 456 kts | 68° |
| 2026-04-24 00:34 | 42.92342 | -77.48730 | 40981 ft | 456 kts | 68° |
| 2026-04-24 00:35 | 42.93932 | -77.40386 | 40983 ft | 457 kts | 68° |
| 2026-04-24 00:35 | 42.95539 | -77.31917 | 40981 ft | 458 kts | 68° |
| 2026-04-24 00:36 | 42.97133 | -77.23478 | 40980 ft | 458 kts | 68° |
| 2026-04-24 00:36 | 42.98720 | -77.15042 | 40966 ft | 459 kts | 68° |
| 2026-04-24 00:37 | 43.00311 | -77.06544 | 40970 ft | 459 kts | 68° |
| 2026-04-24 00:37 | 43.01897 | -76.98032 | 40960 ft | 460 kts | 68° |
| 2026-04-24 00:38 | 43.03465 | -76.89584 | 40964 ft | 460 kts | 68° |
| 2026-04-24 00:38 | 43.04767 | -76.82542 | 40968 ft | 460 kts | 68° |
| 2026-04-24 00:39 | 43.06578 | -76.72693 | 40987 ft | 460 kts | 68° |
| 2026-04-24 00:39 | 43.08134 | -76.64199 | 40981 ft | 460 kts | 68° |
| 2026-04-24 00:40 | 43.09683 | -76.55701 | 40975 ft | 460 kts | 67° |
| 2026-04-24 00:40 | 43.11221 | -76.47227 | 40967 ft | 462 kts | 67° |
| 2026-04-24 00:41 | 43.12778 | -76.38608 | 40970 ft | 463 kts | 67° |
| 2026-04-24 00:41 | 43.14327 | -76.29991 | 40998 ft | 464 kts | 68° |
| 2026-04-24 00:42 | 43.15804 | -76.21420 | 40998 ft | 468 kts | 72° |
| 2026-04-24 00:42 | 43.16322 | -76.12361 | 40983 ft | 477 kts | 80° |
| 2026-04-24 00:43 | 43.16604 | -76.03301 | 40977 ft | 478 kts | 79° |
| 2026-04-24 00:43 | 43.16881 | -75.94217 | 40986 ft | 479 kts | 79° |
| 2026-04-24 00:44 | 43.17153 | -75.85115 | 40983 ft | 479 kts | 80° |
| 2026-04-24 00:44 | 43.17421 | -75.75960 | 40988 ft | 479 kts | 79° |
| 2026-04-24 00:45 | 43.17682 | -75.66835 | 40996 ft | 480 kts | 80° |
| 2026-04-24 00:45 | 43.17936 | -75.57690 | 40994 ft | 481 kts | 79° |
| 2026-04-24 00:46 | 43.18183 | -75.48575 | 40980 ft | 483 kts | 79° |
| 2026-04-24 00:46 | 43.18420 | -75.39500 | 40985 ft | 484 kts | 79° |
| 2026-04-24 00:47 | 43.18655 | -75.30293 | 40985 ft | 484 kts | 80° |
| 2026-04-24 00:47 | 43.18883 | -75.21070 | 40994 ft | 485 kts | 80° |
| 2026-04-24 00:48 | 43.19104 | -75.11840 | 40980 ft | 485 kts | 80° |
| 2026-04-24 00:48 | 43.19318 | -75.02573 | 40960 ft | 486 kts | 80° |
| 2026-04-24 00:49 | 43.19525 | -74.93331 | 40960 ft | 487 kts | 80° |
| 2026-04-24 00:49 | 43.19726 | -74.83990 | 40961 ft | 486 kts | 79° |
| 2026-04-24 00:50 | 43.19917 | -74.74745 | 40966 ft | 487 kts | 79° |
| 2026-04-24 00:50 | 43.20102 | -74.65468 | 40954 ft | 487 kts | 79° |
| 2026-04-24 00:51 | 43.20279 | -74.56182 | 40953 ft | 488 kts | 80° |
| 2026-04-24 00:51 | 43.20450 | -74.46845 | 40950 ft | 488 kts | 79° |
| 2026-04-24 00:52 | 43.20612 | -74.37586 | 40949 ft | 489 kts | 79° |
| 2026-04-24 00:52 | 43.20768 | -74.28206 | 40951 ft | 489 kts | 80° |
| 2026-04-24 00:53 | 43.20915 | -74.18913 | 40945 ft | 488 kts | 80° |
| 2026-04-24 00:53 | 43.21055 | -74.09583 | 40944 ft | 488 kts | 80° |
| 2026-04-24 00:54 | 43.21188 | -74.00243 | 40948 ft | 488 kts | 79° |
| 2026-04-24 00:54 | 43.21312 | -73.90939 | 40940 ft | 489 kts | 80° |
| 2026-04-24 00:55 | 43.21429 | -73.81657 | 40946 ft | 489 kts | 80° |
| 2026-04-24 00:55 | 43.21540 | -73.72308 | 40959 ft | 489 kts | 80° |
| 2026-04-24 00:56 | 43.21642 | -73.62955 | 40947 ft | 490 kts | 80° |
| 2026-04-24 00:56 | 43.21738 | -73.53554 | 40946 ft | 490 kts | 80° |
| 2026-04-24 00:57 | 43.21825 | -73.44219 | 40956 ft | 491 kts | 80° |
| 2026-04-24 00:58 | 43.21942 | -73.30166 | 40934 ft | 492 kts | 81° |
| 2026-04-24 00:58 | 43.22010 | -73.20738 | 40950 ft | 492 kts | 81° |
| 2026-04-24 00:59 | 43.22070 | -73.11323 | 40887 ft | 494 kts | 81° |
| 2026-04-24 00:59 | 43.22103 | -73.06541 | 40411 ft | 508 kts | 80° |
| 2026-04-24 00:59 | 43.22136 | -73.01621 | 39840 ft | 522 kts | 80° |
| 2026-04-24 00:59 | 43.22162 | -72.96629 | 39029 ft | 525 kts | 80° |
| 2026-04-24 01:00 | 43.22182 | -72.91606 | 38325 ft | 522 kts | 80° |
| 2026-04-24 01:00 | 43.22198 | -72.86667 | 37602 ft | 519 kts | 80° |
| 2026-04-24 01:00 | 43.22213 | -72.81702 | 36970 ft | 514 kts | 79° |
| 2026-04-24 01:00 | 43.22226 | -72.76838 | 36261 ft | 512 kts | 79° |
| 2026-04-24 01:01 | 43.22239 | -72.71983 | 35643 ft | 512 kts | 79° |
| 2026-04-24 01:01 | 43.22252 | -72.67072 | 34888 ft | 514 kts | 78° |
| 2026-04-24 01:01 | 43.22261 | -72.62191 | 34216 ft | 513 kts | 78° |
| 2026-04-24 01:01 | 43.22268 | -72.57313 | 33552 ft | 510 kts | 78° |
| 2026-04-24 01:02 | 43.22271 | -72.52513 | 32853 ft | 508 kts | 78° |
| 2026-04-24 01:02 | 43.22274 | -72.47659 | 32215 ft | 505 kts | 78° |
| 2026-04-24 01:02 | 43.22274 | -72.42873 | 31523 ft | 504 kts | 78° |
| 2026-04-24 01:02 | 43.22272 | -72.38073 | 30861 ft | 501 kts | 78° |
| 2026-04-24 01:03 | 43.22269 | -72.33298 | 30191 ft | 499 kts | 78° |
| 2026-04-24 01:03 | 43.22264 | -72.28544 | 29519 ft | 497 kts | 78° |
| 2026-04-24 01:03 | 43.22260 | -72.25414 | 29073 ft | 496 kts | 78° |
| 2026-04-24 01:03 | 43.22249 | -72.19154 | 28202 ft | 493 kts | 78° |
| 2026-04-24 01:04 | 43.22238 | -72.14438 | 27545 ft | 490 kts | 78° |
| 2026-04-24 01:04 | 43.22230 | -72.11377 | 27108 ft | 488 kts | 79° |
| 2026-04-24 01:04 | 43.22217 | -72.06735 | 26465 ft | 486 kts | 78° |
| 2026-04-24 01:04 | 43.22196 | -72.00560 | 25608 ft | 482 kts | 78° |
| 2026-04-24 01:05 | 43.22178 | -71.96003 | 24966 ft | 479 kts | 78° |
| 2026-04-24 01:05 | 43.22159 | -71.91473 | 24354 ft | 477 kts | 79° |
| 2026-04-24 01:05 | 43.22139 | -71.86902 | 23707 ft | 474 kts | 78° |
| 2026-04-24 01:05 | 43.22116 | -71.82399 | 23056 ft | 472 kts | 78° |
| 2026-04-24 01:06 | 43.22092 | -71.77944 | 22470 ft | 468 kts | 78° |
| 2026-04-24 01:06 | 43.22066 | -71.73511 | 21831 ft | 465 kts | 79° |
| 2026-04-24 01:06 | 43.22039 | -71.69081 | 21195 ft | 462 kts | 78° |
| 2026-04-24 01:06 | 43.22019 | -71.66157 | 20809 ft | 459 kts | 79° |
| 2026-04-24 01:07 | 43.22195 | -71.60484 | 19976 ft | 436 kts | 66° |
| 2026-04-24 01:07 | 43.23039 | -71.56651 | 19423 ft | 405 kts | 51° |
| 2026-04-24 01:07 | 43.24379 | -71.53431 | 18859 ft | 378 kts | 39° |
| 2026-04-24 01:07 | 43.25438 | -71.51521 | 18507 ft | 370 kts | 36° |
| 2026-04-24 01:08 | 43.27001 | -71.48805 | 18051 ft | 363 kts | 36° |
| 2026-04-24 01:08 | 43.29065 | -71.45203 | 17489 ft | 356 kts | 36° |
| 2026-04-24 01:08 | 43.30593 | -71.42538 | 17023 ft | 352 kts | 36° |
| 2026-04-24 01:08 | 43.32111 | -71.39893 | 16501 ft | 351 kts | 37° |
| 2026-04-24 01:09 | 43.33603 | -71.37289 | 16060 ft | 347 kts | 38° |
| 2026-04-24 01:09 | 43.35090 | -71.34687 | 15612 ft | 342 kts | 38° |
| 2026-04-24 01:09 | 43.36560 | -71.32116 | 15133 ft | 339 kts | 39° |
| 2026-04-24 01:09 | 43.37995 | -71.29604 | 14691 ft | 335 kts | 39° |
| 2026-04-24 01:10 | 43.39432 | -71.27087 | 14251 ft | 330 kts | 40° |
| 2026-04-24 01:10 | 43.40831 | -71.24633 | 13807 ft | 325 kts | 40° |
| 2026-04-24 01:10 | 43.42202 | -71.22224 | 13439 ft | 319 kts | 40° |
| 2026-04-24 01:10 | 43.43577 | -71.19813 | 12960 ft | 316 kts | 41° |
| 2026-04-24 01:11 | 43.44913 | -71.17465 | 12595 ft | 311 kts | 42° |
| 2026-04-24 01:11 | 43.46238 | -71.15140 | 12129 ft | 310 kts | 42° |
| 2026-04-24 01:11 | 43.47563 | -71.12806 | 11730 ft | 303 kts | 42° |
| 2026-04-24 01:11 | 43.48845 | -71.10548 | 11372 ft | 299 kts | 43° |
| 2026-04-24 01:12 | 43.49708 | -71.09029 | 11066 ft | 298 kts | 43° |
| 2026-04-24 01:12 | 43.51380 | -71.06081 | 10568 ft | 293 kts | 44° |
| 2026-04-24 01:12 | 43.52642 | -71.03856 | 10151 ft | 290 kts | 44° |
| 2026-04-24 01:12 | 43.53459 | -71.02414 | 9908 ft | 287 kts | 44° |
| 2026-04-24 01:13 | 43.54672 | -71.00272 | 9537 ft | 284 kts | 44° |
| 2026-04-24 01:13 | 43.56283 | -70.97424 | 9038 ft | 279 kts | 45° |
| 2026-04-24 01:13 | 43.57467 | -70.95332 | 8666 ft | 276 kts | 45° |
| 2026-04-24 01:13 | 43.58650 | -70.93237 | 8293 ft | 273 kts | 45° |
| 2026-04-24 01:14 | 43.59800 | -70.91201 | 7931 ft | 270 kts | 46° |
| 2026-04-24 01:14 | 43.60948 | -70.89166 | 7588 ft | 266 kts | 45° |
| 2026-04-24 01:14 | 43.62071 | -70.87176 | 7230 ft | 263 kts | 46° |
| 2026-04-24 01:14 | 43.63195 | -70.85179 | 6879 ft | 259 kts | 46° |
| 2026-04-24 01:15 | 43.64286 | -70.83241 | 6543 ft | 255 kts | 46° |
| 2026-04-24 01:15 | 43.65376 | -70.81304 | 6208 ft | 254 kts | 46° |
| 2026-04-24 01:15 | 43.66460 | -70.79369 | 5863 ft | 255 kts | 49° |
| 2026-04-24 01:15 | 43.67250 | -70.77141 | 5507 ft | 263 kts | 71° |
| 2026-04-24 01:16 | 43.67360 | -70.74603 | 5157 ft | 268 kts | 90° |
| 2026-04-24 01:16 | 43.67182 | -70.72041 | 4784 ft | 268 kts | 91° |
| 2026-04-24 01:16 | 43.67063 | -70.70348 | 4542 ft | 266 kts | 91° |
| 2026-04-24 01:16 | 43.66841 | -70.67003 | 4039 ft | 262 kts | 90° |
| 2026-04-24 01:17 | 43.66679 | -70.64500 | 3609 ft | 256 kts | 90° |
| 2026-04-24 01:17 | 43.66523 | -70.62142 | 3461 ft | 239 kts | 90° |
| 2026-04-24 01:17 | 43.66380 | -70.59973 | 3470 ft | 217 kts | 90° |
| 2026-04-24 01:17 | 43.66249 | -70.57988 | 3528 ft | 193 kts | 89° |
| 2026-04-24 01:18 | 43.66134 | -70.56245 | 3433 ft | 176 kts | 88° |
| 2026-04-24 01:18 | 43.66029 | -70.54588 | 3219 ft | 167 kts | 87° |
| 2026-04-24 01:18 | 43.65928 | -70.53033 | 3023 ft | 157 kts | 86° |
| 2026-04-24 01:18 | 43.65833 | -70.51598 | 2804 ft | 145 kts | 86° |
| 2026-04-24 01:19 | 43.65772 | -70.50676 | 2669 ft | 142 kts | 86° |
| 2026-04-24 01:19 | 43.65662 | -70.48859 | 2439 ft | 145 kts | 86° |
| 2026-04-24 01:19 | 43.65573 | -70.47463 | 2227 ft | 145 kts | 87° |
| 2026-04-24 01:19 | 43.65482 | -70.46092 | 2045 ft | 144 kts | 87° |
| 2026-04-24 01:20 | 43.65390 | -70.44703 | 1839 ft | 143 kts | 87° |
| 2026-04-24 01:20 | 43.65299 | -70.43337 | 1649 ft | 142 kts | 87° |
| 2026-04-24 01:20 | 43.65209 | -70.41973 | 1450 ft | 142 kts | 88° |
| 2026-04-24 01:20 | 43.65120 | -70.40627 | 1255 ft | 141 kts | 89° |
| 2026-04-24 01:21 | 43.65030 | -70.39270 | 1065 ft | 140 kts | 89° |
| 2026-04-24 01:21 | 43.64939 | -70.37936 | 875 ft | 140 kts | 89° |
| 2026-04-24 01:21 | 43.64849 | -70.36605 | 676 ft | 139 kts | 89° |
| 2026-04-24 01:21 | 43.64770 | -70.35278 | 493 ft | 139 kts | 90° |
| 2026-04-24 01:22 | 43.64685 | -70.33953 | 321 ft | 138 kts | 92° |
| 2026-04-24 01:22 | 43.64588 | -70.32619 | 101 ft | 138 kts | 92° |
| 2026-04-24 01:22 | 43.64505 | -70.31407 | 61 ft | 113 kts | 92° |
| 2026-04-24 01:22 | 43.64449 | -70.30552 | 60 ft | 55 kts | 95° |
| 2026-04-24 01:23 | 43.64431 | -70.30328 | 60 ft | 11 kts | 92° |
| 2026-04-24 01:23 | 43.64451 | -70.30306 | 60 ft | 1 kts | 335° |
| 2026-04-24 01:23 | 43.64525 | -70.30353 | 60 ft | 15 kts | 338° |
| 2026-04-24 01:23 | 43.64551 | -70.30469 | 60 ft | 14 kts | 277° |
| 2026-04-24 01:24 | 43.64562 | -70.30612 | 59 ft | 16 kts | 276° |
| 2026-04-24 01:24 | 43.64627 | -70.30696 | 59 ft | 14 kts | 357° |
| 2026-04-24 01:24 | 43.64729 | -70.30701 | 60 ft | 15 kts | 359° |
| 2026-04-24 01:24 | 43.64841 | -70.30706 | 60 ft | 16 kts | 358° |
| 2026-04-24 01:25 | 43.64913 | -70.30773 | 59 ft | 13 kts | 271° |
| 2026-04-24 01:25 | 43.64921 | -70.30827 | 59 ft | 3 kts | 358° |
| 2026-04-24 01:25 | 43.64923 | -70.30827 | 59 ft | 0 kts | 358° |